Blenheim, Canada
Current Conditions -  °F | °C
As of 4:00 AM on Wednesday 22 Oct 2014 (Local Time) from CYCK Reporting Station
Overcast Overcast  
Wind Chill: 40°   Ceiling: 1600
Heat Index: 45°   Visibility: 9mi
Dew Point: 41°   Wind: 9mph
Humidity: 87%   Direction: 20°NNE
Pressure: 30.19"   Gusts: NA
Location:  42.33°N, 82°W
Report Text: CYCK 220800Z AUTO 02008KT 9SM OVC016 07/05 A3019 RMK SLP226
Loading
Personal Weather Stations






























Interactive Weather Map
Tropical Storm Tracking
New forecast layout! Learn more

10-Day Weather Forecast

Advertisements
Track Severe Weather on mobile